Time;durP1;ratioP1;P1;durP2;ratioP2;P2;SDS_P1;SDS_P2;PMS_P1;PMS_P2;Temp;Humidity;BMP_temperature;BMP_pressure;BME280_temperature;BME280_humidity;BME280_pressure;Samples;Min_cycle;Max_cycle;Signal;HPM_P1;HPM_P2
2022/03/08 00:00:50;;;;;;;5.65;3.80;;;-1.60;99.90;;;;;;7361312;32;20095;-61
2022/03/08 00:04:52;;;;;;;6.50;3.95;;;-1.70;99.90;;;;;;7361194;32;20192;-62
2022/03/08 00:08:53;;;;;;;5.87;3.67;;;-1.70;99.90;;;;;;7360956;32;20490;-61
2022/03/08 00:12:56;;;;;;;6.57;4.03;;;-1.70;99.90;;;;;;7361968;32;20199;-62
2022/03/08 00:16:58;;;;;;;7.22;4.10;;;-1.80;99.90;;;;;;7365279;32;20247;-61
2022/03/08 00:20:59;;;;;;;6.75;4.07;;;-1.70;99.90;;;;;;7363773;32;20732;-61
2022/03/08 00:25:03;;;;;;;5.80;4.00;;;-1.80;99.90;;;;;;7365537;32;20107;-61
2022/03/08 00:29:04;;;;;;;6.50;3.70;;;-1.80;99.90;;;;;;7357570;32;20107;-60
2022/03/08 00:33:06;;;;;;;5.80;4.00;;;-1.80;99.90;;;;;;7359864;32;20160;-60
2022/03/08 00:37:08;;;;;;;9.80;4.10;;;-1.80;99.90;;;;;;7359403;32;20130;-59
2022/03/08 00:41:10;;;;;;;7.25;3.70;;;-1.90;99.90;;;;;;7362407;32;20107;-59
2022/03/08 00:45:12;;;;;;;8.48;4.47;;;-1.90;99.90;;;;;;7363264;32;20214;-60
2022/03/08 00:49:13;;;;;;;8.60;4.12;;;-1.90;99.90;;;;;;7358585;32;20172;-62
2022/03/08 00:53:15;;;;;;;6.97;4.10;;;-1.90;99.90;;;;;;7359919;32;20260;-60
2022/03/08 00:57:17;;;;;;;7.00;4.28;;;-1.90;99.90;;;;;;7366308;32;20260;-59
2022/03/08 01:01:19;;;;;;;6.90;4.10;;;-1.90;99.90;;;;;;7362392;32;20639;-59
2022/03/08 01:05:21;;;;;;;8.55;4.57;;;-2.00;99.90;;;;;;7358221;32;20229;-60
2022/03/08 01:09:23;;;;;;;7.37;4.15;;;-1.90;99.90;;;;;;7361500;32;20124;-60
2022/03/08 01:13:25;;;;;;;10.07;5.05;;;-1.90;99.90;;;;;;7358729;32;20125;-60
2022/03/08 01:17:28;;;;;;;7.15;4.30;;;-1.80;99.90;;;;;;7354115;32;20107;-61
2022/03/08 01:21:29;;;;;;;6.65;4.22;;;-1.70;99.90;;;;;;7357333;32;20577;-61
2022/03/08 01:25:31;;;;;;;7.10;4.40;;;-1.60;99.90;;;;;;7361775;32;20130;-60
2022/03/08 01:29:33;;;;;;;6.72;4.68;;;-1.50;99.90;;;;;;7363530;32;20134;-60
2022/03/08 01:33:35;;;;;;;11.00;4.75;;;-1.30;99.90;;;;;;7357424;32;20153;-61
2022/03/08 01:37:37;;;;;;;10.30;4.45;;;-1.20;99.90;;;;;;7350889;32;20238;-60
2022/03/08 01:41:39;;;;;;;6.72;4.15;;;-1.10;99.90;;;;;;7354683;32;20135;-59
2022/03/08 01:45:42;;;;;;;7.22;4.57;;;-0.90;99.90;;;;;;7355394;32;20241;-60
2022/03/08 01:49:44;;;;;;;7.72;4.50;;;-0.90;99.90;;;;;;7357855;32;20190;-60
2022/03/08 01:53:47;;;;;;;5.93;3.70;;;-0.80;99.90;;;;;;7352944;32;20104;-60
2022/03/08 01:57:50;;;;;;;6.93;4.10;;;-0.80;99.90;;;;;;7356917;32;20115;-60
2022/03/08 02:01:52;;;;;;;5.80;4.07;;;-1.00;99.90;;;;;;7353409;32;20318;-58
2022/03/08 02:05:54;;;;;;;6.62;3.97;;;-1.00;99.90;;;;;;7352810;32;20159;-58
2022/03/08 02:09:58;;;;;;;7.18;4.05;;;-1.00;99.90;;;;;;7353693;32;20152;-60
2022/03/08 02:14:00;;;;;;;7.45;4.35;;;-0.90;99.90;;;;;;7355924;32;20712;-59
2022/03/08 02:18:02;;;;;;;5.18;4.18;;;-1.10;99.90;;;;;;7360349;32;20102;-60
2022/03/08 02:22:04;;;;;;;6.10;4.35;;;-1.10;99.90;;;;;;7359022;32;20634;-59
2022/03/08 02:26:06;;;;;;;8.35;4.18;;;-1.20;99.90;;;;;;7354359;32;20127;-61
2022/03/08 02:30:09;;;;;;;6.00;3.55;;;-1.30;99.90;;;;;;7357544;32;20229;-58
2022/03/08 02:34:11;;;;;;;7.85;4.12;;;-1.30;99.90;;;;;;7359023;32;20117;-59
2022/03/08 02:38:13;;;;;;;6.45;4.12;;;-1.10;99.90;;;;;;7355692;32;20198;-60
2022/03/08 02:42:14;;;;;;;8.07;4.57;;;-1.20;99.90;;;;;;7354311;32;20133;-60
2022/03/08 02:46:16;;;;;;;7.00;4.43;;;-1.20;99.90;;;;;;7352543;32;20225;-61
2022/03/08 02:50:19;;;;;;;6.97;4.45;;;-0.90;99.90;;;;;;7353153;32;20277;-60
2022/03/08 02:54:21;;;;;;;6.47;4.53;;;-0.50;99.90;;;;;;7348934;32;20231;-60
2022/03/08 02:58:23;;;;;;;7.57;4.85;;;-0.20;99.90;;;;;;7352715;32;20302;-60
2022/03/08 03:02:24;;;;;;;7.15;4.35;;;-0.20;99.90;;;;;;7361864;32;20103;-60
2022/03/08 03:11:30;;;;;;;7.40;4.10;;;0.10;99.90;;;;;;7359316;32;20141;-60
2022/03/08 03:15:32;;;;;;;7.05;4.30;;;0.10;99.90;;;;;;7360910;32;20194;-60
2022/03/08 03:19:34;;;;;;;8.73;4.72;;;0.10;99.90;;;;;;7359361;32;20161;-61
2022/03/08 03:23:35;;;;;;;6.28;4.30;;;0.40;99.90;;;;;;7365685;32;20114;-59
2022/03/08 03:27:38;;;;;;;7.43;5.18;;;0.30;99.90;;;;;;7356547;32;20211;-59
2022/03/08 03:31:39;;;;;;;7.15;4.70;;;0.60;99.90;;;;;;7362399;32;20450;-59
2022/03/08 03:35:41;;;;;;;6.18;4.32;;;0.60;99.90;;;;;;7358542;32;20737;-59
2022/03/08 03:39:45;;;;;;;9.23;4.18;;;0.60;99.90;;;;;;7363300;32;20234;-59
2022/03/08 03:43:46;;;;;;;6.35;4.60;;;0.50;99.90;;;;;;7369786;32;20726;-60
2022/03/08 03:47:48;;;;;;;7.50;4.32;;;0.60;99.90;;;;;;7364911;32;20213;-59
2022/03/08 03:51:51;;;;;;;6.53;4.50;;;0.60;99.90;;;;;;7362515;32;20148;-59
2022/03/08 03:55:52;;;;;;;8.35;4.55;;;0.60;99.90;;;;;;7368077;32;20209;-59
2022/03/08 03:59:54;;;;;;;7.30;4.70;;;0.50;99.90;;;;;;7362485;32;22217;-61
2022/03/08 04:03:56;;;;;;;5.53;3.97;;;0.40;99.90;;;;;;7361780;32;20562;-59
2022/03/08 04:07:57;;;;;;;6.45;4.55;;;0.50;99.90;;;;;;7357755;32;20518;-59
2022/03/08 04:11:59;;;;;;;9.13;4.40;;;0.50;99.90;;;;;;7352182;32;20432;-60
2022/03/08 04:16:01;;;;;;;5.65;3.92;;;0.50;99.90;;;;;;7353966;32;20490;-59
2022/03/08 04:20:05;;;;;;;6.82;3.90;;;0.70;99.90;;;;;;7349611;32;20142;-60
2022/03/08 04:24:07;;;;;;;7.28;4.15;;;0.70;99.90;;;;;;7350989;32;20475;-60
2022/03/08 04:28:08;;;;;;;6.12;3.92;;;0.70;99.90;;;;;;7352436;32;20152;-59
2022/03/08 04:32:10;;;;;;;7.07;4.85;;;0.70;99.90;;;;;;7351421;32;20257;-59
2022/03/08 04:36:12;;;;;;;8.32;4.95;;;0.70;99.90;;;;;;7353592;32;20142;-59
2022/03/08 04:40:14;;;;;;;6.28;4.53;;;0.70;99.90;;;;;;7360522;32;20123;-60
2022/03/08 04:44:16;;;;;;;7.62;4.40;;;0.70;99.90;;;;;;7355228;32;20181;-60
2022/03/08 04:48:24;;;;;;;9.38;5.18;;;0.70;99.90;;;;;;7356317;32;20330;-59
2022/03/08 04:52:25;;;;;;;8.48;4.87;;;0.60;99.90;;;;;;7356118;32;20930;-59
2022/03/08 04:56:27;;;;;;;9.02;4.40;;;0.60;99.90;;;;;;7359932;32;20103;-60
2022/03/08 05:00:29;;;;;;;8.90;4.85;;;0.70;99.90;;;;;;7365438;32;20095;-59
2022/03/08 05:04:31;;;;;;;7.70;4.55;;;0.60;99.90;;;;;;7363290;32;20107;-60
2022/03/08 05:08:33;;;;;;;7.82;4.80;;;0.40;99.90;;;;;;7362204;32;20225;-60
2022/03/08 05:12:36;;;;;;;7.47;4.43;;;0.40;99.90;;;;;;7349765;32;20203;-60
2022/03/08 05:16:38;;;;;;;8.93;4.80;;;0.40;99.90;;;;;;7352990;32;20123;-61
2022/03/08 05:20:40;;;;;;;7.57;4.65;;;0.30;99.90;;;;;;7362528;32;20208;-60
2022/03/08 05:24:42;;;;;;;8.88;4.60;;;0.30;99.90;;;;;;7360000;32;20150;-61
2022/03/08 05:28:43;;;;;;;11.63;4.72;;;0.30;99.90;;;;;;7359332;32;20194;-60
2022/03/08 05:32:45;;;;;;;9.88;4.45;;;0.30;99.90;;;;;;7357052;32;20114;-60
2022/03/08 05:36:47;;;;;;;9.38;4.68;;;0.50;99.90;;;;;;7351996;32;20143;-60
2022/03/08 05:40:48;;;;;;;8.45;4.22;;;0.50;99.90;;;;;;7360355;32;20728;-61
2022/03/08 05:44:50;;;;;;;8.05;4.40;;;0.50;99.90;;;;;;7357422;32;20523;-58
2022/03/08 05:48:52;;;;;;;9.32;4.28;;;0.60;99.90;;;;;;7355583;32;20115;-59
2022/03/08 05:52:54;;;;;;;7.00;4.45;;;0.60;99.90;;;;;;7355284;32;20190;-60
2022/03/08 05:56:55;;;;;;;7.75;4.45;;;0.70;99.90;;;;;;7358616;32;20135;-59
2022/03/08 06:00:57;;;;;;;10.88;4.72;;;0.70;99.90;;;;;;7358095;32;20129;-61
2022/03/08 06:04:59;;;;;;;6.32;4.07;;;0.90;99.90;;;;;;7355430;32;20121;-60
2022/03/08 06:09:00;;;;;;;10.90;4.72;;;0.90;99.90;;;;;;7358276;32;20760;-60
2022/03/08 06:13:02;;;;;;;8.10;4.35;;;1.00;99.90;;;;;;7357282;32;20154;-59
2022/03/08 06:17:06;;;;;;;7.53;4.90;;;1.20;99.90;;;;;;7353005;32;20373;-61
2022/03/08 06:21:08;;;;;;;8.30;4.12;;;1.30;99.90;;;;;;7358789;32;20142;-60
2022/03/08 06:25:11;;;;;;;9.18;4.50;;;1.30;99.90;;;;;;7354320;32;20119;-59
2022/03/08 06:29:12;;;;;;;6.93;4.20;;;1.30;99.90;;;;;;7358558;32;20225;-61
2022/03/08 06:33:14;;;;;;;7.80;4.30;;;1.40;99.90;;;;;;7358773;32;20166;-59
2022/03/08 06:37:16;;;;;;;5.57;3.90;;;1.40;99.90;;;;;;7352451;32;20999;-59
2022/03/08 06:41:18;;;;;;;8.68;4.30;;;1.50;99.90;;;;;;7365856;32;20218;-58
2022/03/08 06:45:19;;;;;;;6.28;4.20;;;1.50;99.90;;;;;;7366798;32;20119;-58
2022/03/08 06:49:21;;;;;;;7.72;3.92;;;1.60;99.90;;;;;;7365029;32;20104;-58
2022/03/08 06:53:23;;;;;;;7.25;3.80;;;1.60;99.90;;;;;;7358466;32;20613;-58
2022/03/08 06:57:25;;;;;;;7.12;3.53;;;1.70;99.90;;;;;;7360727;32;20285;-58
2022/03/08 07:01:26;;;;;;;7.50;3.97;;;1.90;99.90;;;;;;7355947;32;20123;-59
2022/03/08 07:05:28;;;;;;;6.47;3.85;;;2.10;99.90;;;;;;7353986;32;20157;-60
2022/03/08 07:09:30;;;;;;;6.53;3.83;;;2.20;99.90;;;;;;7359869;32;20799;-61
2022/03/08 07:13:32;;;;;;;7.50;3.78;;;2.30;99.90;;;;;;7363820;32;20560;-60
2022/03/08 07:17:34;;;;;;;6.20;3.90;;;2.40;99.90;;;;;;7360252;32;20193;-60
2022/03/08 07:21:35;;;;;;;6.47;3.50;;;2.50;99.90;;;;;;7363624;32;20104;-60
2022/03/08 07:25:37;;;;;;;8.35;4.47;;;2.60;99.90;;;;;;7353102;32;20126;-60
2022/03/08 07:29:39;;;;;;;5.93;3.95;;;2.70;99.90;;;;;;7359222;32;20182;-60
2022/03/08 07:33:41;;;;;;;7.95;3.92;;;2.80;99.90;;;;;;7359193;32;20111;-61
2022/03/08 07:37:42;;;;;;;6.68;3.80;;;2.90;99.90;;;;;;7363970;32;20154;-60
2022/03/08 07:41:44;;;;;;;5.65;3.75;;;3.00;99.90;;;;;;7356876;32;20289;-61
2022/03/08 07:45:46;;;;;;;8.88;3.37;;;3.10;99.90;;;;;;7358808;32;20189;-61
2022/03/08 07:49:48;;;;;;;8.50;4.60;;;3.30;99.90;;;;;;7364952;32;20137;-60
2022/03/08 07:53:59;;;;;;;7.57;3.78;;;3.40;99.90;;;;;;7362543;32;20872;-60
2022/03/08 07:58:02;;;;;;;12.35;3.87;;;3.50;99.90;;;;;;7365815;32;20129;-59
2022/03/08 08:02:04;;;;;;;6.62;3.55;;;3.60;99.90;;;;;;7360524;32;20261;-60
2022/03/08 08:06:06;;;;;;;7.80;4.20;;;3.70;99.90;;;;;;7357852;32;20103;-59
2022/03/08 08:10:08;;;;;;;6.47;3.80;;;3.80;99.90;;;;;;7361180;32;20764;-59
2022/03/08 08:14:10;;;;;;;6.95;4.05;;;3.90;99.90;;;;;;7351252;32;20107;-59
2022/03/08 08:18:12;;;;;;;6.00;4.15;;;4.00;99.90;;;;;;7356510;32;20229;-59
2022/03/08 08:22:14;;;;;;;5.25;3.92;;;4.10;99.90;;;;;;7358289;32;20216;-60
2022/03/08 08:26:16;;;;;;;5.87;4.18;;;4.30;99.90;;;;;;7363321;32;20211;-60
2022/03/08 08:30:18;;;;;;;7.90;3.83;;;4.40;99.90;;;;;;7362803;32;20103;-59
2022/03/08 08:34:19;;;;;;;5.15;3.15;;;4.60;99.90;;;;;;7365635;32;20805;-59
2022/03/08 08:38:21;;;;;;;4.12;3.10;;;4.70;99.90;;;;;;7359696;32;20107;-60
2022/03/08 08:42:23;;;;;;;4.90;3.35;;;4.90;99.90;;;;;;7355617;32;20130;-58
2022/03/08 08:46:25;;;;;;;7.20;3.35;;;5.00;99.90;;;;;;7357661;32;20223;-59
2022/03/08 08:50:26;;;;;;;6.12;3.35;;;5.20;99.90;;;;;;7354343;32;20786;-59
2022/03/08 08:54:28;;;;;;;5.78;3.25;;;5.30;98.00;;;;;;7356415;32;20129;-60
2022/03/08 08:58:30;;;;;;;5.75;3.30;;;5.50;94.30;;;;;;7357244;32;20130;-58
2022/03/08 09:02:31;;;;;;;5.60;3.37;;;6.00;91.60;;;;;;7353404;32;20241;-59
2022/03/08 09:06:34;;;;;;;6.12;3.30;;;6.90;88.70;;;;;;7360268;32;20111;-59
2022/03/08 09:10:35;;;;;;;4.00;3.05;;;7.60;80.40;;;;;;7359978;32;20259;-60
2022/03/08 09:14:37;;;;;;;4.97;3.25;;;8.40;71.80;;;;;;7356067;32;20131;-59
2022/03/08 09:18:39;;;;;;;3.85;3.10;;;8.80;67.60;;;;;;7359338;32;20125;-58
2022/03/08 09:22:41;;;;;;;6.70;2.72;;;9.50;66.10;;;;;;7359571;32;20125;-60
2022/03/08 09:26:43;;;;;;;4.15;2.87;;;10.20;60.00;;;;;;7362375;32;20107;-59
2022/03/08 09:30:46;;;;;;;5.45;3.30;;;10.30;60.00;;;;;;7364238;32;20198;-60
2022/03/08 09:34:48;;;;;;;4.25;3.60;;;10.90;57.60;;;;;;7351593;32;20149;-61
2022/03/08 09:38:50;;;;;;;5.35;3.30;;;10.80;53.80;;;;;;7355119;32;20834;-59
2022/03/08 09:42:52;;;;;;;4.68;2.87;;;11.40;52.90;;;;;;7364088;32;20102;-59
2022/03/08 09:46:54;;;;;;;3.58;3.08;;;12.00;53.10;;;;;;7361782;32;20478;-61
2022/03/08 09:50:59;;;;;;;3.78;3.08;;;11.60;51.50;;;;;;7363204;32;20611;-60
2022/03/08 09:55:03;;;;;;;5.05;3.35;;;12.50;50.70;;;;;;7352492;32;20123;-61
2022/03/08 09:59:05;;;;;;;5.40;3.62;;;12.90;50.60;;;;;;7353299;32;20194;-59
2022/03/08 10:03:10;;;;;;;3.97;3.03;;;13.30;47.50;;;;;;7363015;32;20137;-60
2022/03/08 10:07:12;;;;;;;8.60;3.83;;;14.20;46.00;;;;;;7356990;32;20571;-61
2022/03/08 10:11:15;;;;;;;4.93;3.70;;;14.80;44.40;;;;;;7358970;32;20132;-60
2022/03/08 10:15:20;;;;;;;6.45;3.60;;;14.30;44.50;;;;;;7367450;32;20107;-60
2022/03/08 10:19:23;;;;;;;4.68;3.30;;;14.10;44.30;;;;;;7352093;32;20129;-59
2022/03/08 10:23:25;;;;;;;5.90;3.22;;;14.60;44.70;;;;;;7355672;32;20094;-59
2022/03/08 10:27:26;;;;;;;4.25;3.30;;;15.00;43.10;;;;;;7357824;32;20712;-59
2022/03/08 10:31:28;;;;;;;6.55;3.90;;;14.90;43.00;;;;;;7354816;32;20131;-60
2022/03/08 10:35:37;;;;;;;6.12;3.50;;;14.20;42.00;;;;;;7347375;32;20506;-61
2022/03/08 10:40:09;;;;;;;5.62;3.85;;;14.60;44.00;;;;;;7367223;32;20236;-61
2022/03/08 10:44:11;;;;;;;5.18;3.55;;;15.70;41.90;;;;;;7359522;32;20522;-60
2022/03/08 10:48:21;;;;;;;3.85;3.45;;;14.20;42.00;;;;;;7360216;32;20739;-60
2022/03/08 10:52:35;;;;;;;5.97;3.70;;;12.00;46.80;;;;;;7349762;32;20702;-61
2022/03/08 10:56:43;;;;;;;6.43;3.42;;;11.10;49.60;;;;;;7360139;32;20111;-59
2022/03/08 11:00:46;;;;;;;5.50;3.67;;;10.00;51.60;;;;;;7356778;32;20216;-59
2022/03/08 11:05:15;;;;;;;6.50;3.70;;;9.90;52.60;;;;;;7357069;32;20111;-59
2022/03/08 11:09:18;;;;;;;;;;;9.40;52.50;;;;;;7351296;32;20226;-60
2022/03/08 11:13:20;;;;;;;5.40;3.70;;;9.20;53.60;;;;;;7349251;32;20414;-62
2022/03/08 11:17:24;;;;;;;4.93;3.78;;;9.20;54.80;;;;;;7356937;32;20102;-59
2022/03/08 11:21:26;;;;;;;5.82;3.65;;;9.00;55.50;;;;;;7355629;32;20194;-60
2022/03/08 11:25:34;;;;;;;4.65;3.22;;;9.20;54.30;;;;;;7368199;32;20103;-60
2022/03/08 11:29:56;;;;;;;5.43;3.40;;;9.30;55.60;;;;;;7357710;32;20301;-60
2022/03/08 11:34:10;;;;;;;4.57;3.42;;;9.50;55.80;;;;;;7366175;32;20103;-61
2022/03/08 11:38:13;;;;;;;6.70;3.72;;;9.70;55.00;;;;;;7358130;32;20134;-61
2022/03/08 11:42:20;;;;;;;8.00;3.97;;;9.90;54.10;;;;;;7364555;32;20103;-60
2022/03/08 11:46:22;;;;;;;4.75;3.20;;;10.70;51.30;;;;;;7357111;32;20129;-60
2022/03/08 11:50:27;;;;;;;6.47;3.67;;;11.20;51.70;;;;;;7362732;32;20690;-61
2022/03/08 11:54:29;;;;;;;5.97;3.62;;;11.70;50.10;;;;;;7361015;32;20099;-61
2022/03/08 11:58:44;;;;;;;4.03;2.78;;;12.00;49.60;;;;;;7368856;32;20606;-61
2022/03/08 12:02:48;;;;;;;5.00;3.92;;;12.50;48.40;;;;;;7360878;32;20894;-62
2022/03/08 12:06:54;;;;;;;5.18;3.00;;;13.80;45.30;;;;;;7363297;32;20111;-61
2022/03/08 12:11:00;;;;;;;4.00;2.78;;;14.20;44.00;;;;;;7363872;32;20354;-63
2022/03/08 12:15:12;;;;;;;4.40;3.80;;;14.00;44.00;;;;;;7362834;32;20103;-62
2022/03/08 12:19:33;;;;;;;5.87;3.15;;;14.20;44.70;;;;;;7365392;32;20430;-61
2022/03/08 12:23:53;;;;;;;4.43;3.40;;;14.40;42.90;;;;;;7359637;32;20607;-63
2022/03/08 12:27:56;;;;;;;6.85;3.03;;;14.50;42.90;;;;;;7363810;32;20221;-63
2022/03/08 12:35:59;;;;;;;5.78;3.20;;;14.70;40.40;;;;;;7361457;32;20861;-61
2022/03/08 12:40:15;;;;;;;5.25;3.33;;;14.90;41.80;;;;;;7363346;32;20131;-58
2022/03/08 12:44:20;;;;;;;5.53;3.20;;;13.70;42.60;;;;;;7354440;32;20425;-58
2022/03/08 12:48:23;;;;;;;4.85;3.53;;;13.70;44.80;;;;;;7358180;32;20107;-58
2022/03/08 12:52:27;;;;;;;4.45;2.95;;;13.90;44.10;;;;;;7355612;32;20609;-57
2022/03/08 12:56:31;;;;;;;5.47;2.85;;;13.50;43.00;;;;;;7360827;32;20121;-58
2022/03/08 13:00:44;;;;;;;3.92;3.08;;;13.60;43.00;;;;;;7365945;32;20178;-58
2022/03/08 13:04:47;;;;;;;5.57;3.55;;;14.10;43.40;;;;;;7359685;32;20175;-61
2022/03/08 13:08:49;;;;;;;5.25;3.33;;;13.60;43.00;;;;;;7360840;32;20135;-61
2022/03/08 13:12:56;;;;;;;8.57;3.55;;;13.30;41.90;;;;;;7359907;32;20195;-61
2022/03/08 13:17:01;;;;;;;6.82;4.00;;;13.10;42.50;;;;;;7362155;32;20094;-61
2022/03/08 13:21:08;;;;;;;5.45;3.20;;;13.10;42.90;;;;;;7352307;32;20502;-61
2022/03/08 13:25:11;;;;;;;6.18;3.50;;;13.40;44.20;;;;;;7357125;32;20127;-60
2022/03/08 13:29:22;;;;;;;6.22;3.55;;;13.90;42.90;;;;;;7357834;32;20721;-61
2022/03/08 13:33:34;;;;;;;7.32;3.60;;;14.10;43.00;;;;;;7362373;32;20107;-62
2022/03/08 13:37:47;;;;;;;5.10;3.47;;;14.40;43.10;;;;;;7346771;32;20169;-63
2022/03/08 13:41:49;;;;;;;4.22;3.35;;;14.90;40.90;;;;;;7358261;32;20664;-60
2022/03/08 13:45:51;;;;;;;5.57;4.03;;;15.70;42.20;;;;;;7351125;32;20331;-61
2022/03/08 13:49:59;;;;;;;5.70;3.80;;;15.70;40.40;;;;;;7364500;32;20227;-60
2022/03/08 13:54:06;;;;;;;6.32;4.18;;;15.80;39.50;;;;;;7348453;32;20145;-60
2022/03/08 13:58:13;;;;;;;4.83;4.27;;;15.80;38.20;;;;;;7353086;32;20150;-61
2022/03/08 14:02:17;;;;;;;6.97;4.40;;;16.10;39.30;;;;;;7362459;32;20260;-61
2022/03/08 14:06:24;;;;;;;4.97;4.43;;;16.50;38.30;;;;;;7351273;32;20731;-60
2022/03/08 14:10:27;;;;;;;4.53;3.60;;;16.40;38.20;;;;;;7358387;32;20106;-61
2022/03/08 14:14:31;;;;;;;6.93;4.40;;;16.60;38.20;;;;;;7356761;32;20107;-60
2022/03/08 14:18:34;;;;;;;7.25;4.07;;;16.00;38.20;;;;;;7360556;32;20297;-60
2022/03/08 14:22:35;;;;;;;5.82;4.15;;;16.20;38.20;;;;;;7355327;32;20217;-62
2022/03/08 14:26:38;;;;;;;5.12;4.43;;;16.50;37.90;;;;;;7362597;32;20190;-62
2022/03/08 14:30:40;;;;;;;6.35;4.03;;;16.20;37.80;;;;;;7359707;32;20103;-61
2022/03/08 14:34:42;;;;;;;5.40;4.37;;;16.20;37.30;;;;;;7356493;32;20126;-59
2022/03/08 14:38:49;;;;;;;5.45;4.10;;;16.40;38.40;;;;;;7356971;32;20195;-60
2022/03/08 14:42:51;;;;;;;4.85;3.92;;;16.30;37.70;;;;;;7356105;32;20710;-60
2022/03/08 14:46:53;;;;;;;5.30;3.95;;;16.30;37.60;;;;;;7355064;32;20112;-60
2022/03/08 14:50:55;;;;;;;5.15;4.18;;;16.10;37.00;;;;;;7357601;32;20601;-61
2022/03/08 14:54:59;;;;;;;4.97;4.05;;;15.80;38.70;;;;;;7364463;32;20870;-60
2022/03/08 14:59:21;;;;;;;5.30;4.53;;;14.50;40.20;;;;;;7360413;32;20126;-61
2022/03/08 15:03:23;;;;;;;7.10;4.70;;;13.30;42.70;;;;;;7358273;32;20127;-61
2022/03/08 15:07:28;;;;;;;6.43;4.25;;;12.50;44.80;;;;;;7361658;32;20651;-60
2022/03/08 15:11:30;;;;;;;10.80;4.95;;;11.90;45.20;;;;;;7362659;32;20123;-60
2022/03/08 15:15:31;;;;;;;5.75;4.90;;;11.60;45.90;;;;;;7363995;32;20135;-60
2022/03/08 15:19:33;;;;;;;6.75;4.53;;;11.10;47.00;;;;;;7365503;32;20491;-61
2022/03/08 15:23:35;;;;;;;6.40;4.68;;;11.10;47.70;;;;;;7362009;32;20487;-61
2022/03/08 15:27:38;;;;;;;8.07;4.32;;;11.10;48.10;;;;;;7364789;32;20103;-62
2022/03/08 15:31:40;;;;;;;11.63;4.80;;;11.00;48.30;;;;;;7362921;32;20784;-59
2022/03/08 15:35:42;;;;;;;6.60;4.30;;;11.00;47.20;;;;;;7360799;32;20123;-60
2022/03/08 15:39:44;;;;;;;5.53;4.57;;;10.90;47.80;;;;;;7366078;32;20550;-61
2022/03/08 15:43:47;;;;;;;7.68;5.05;;;10.70;48.40;;;;;;7364159;32;20122;-62
2022/03/08 15:47:49;;;;;;;6.10;4.35;;;10.70;48.80;;;;;;7359049;32;20122;-60
2022/03/08 15:51:57;;;;;;;6.12;4.30;;;10.70;50.80;;;;;;7363687;32;22026;-61
2022/03/08 15:55:59;;;;;;;6.35;4.32;;;10.70;49.20;;;;;;7362513;32;20186;-60
2022/03/08 16:00:03;;;;;;;9.18;5.07;;;10.50;49.50;;;;;;7364954;32;20186;-61
2022/03/08 16:04:04;;;;;;;5.50;4.32;;;10.50;49.60;;;;;;7359794;32;20194;-60
2022/03/08 16:08:06;;;;;;;6.82;4.90;;;10.40;50.60;;;;;;7362410;32;20238;-61
2022/03/08 16:12:09;;;;;;;9.63;4.35;;;10.30;50.90;;;;;;7362705;32;20103;-60
2022/03/08 16:16:10;;;;;;;5.78;4.28;;;10.10;51.20;;;;;;7359937;32;20201;-60
2022/03/08 16:20:12;;;;;;;6.85;4.60;;;10.10;50.50;;;;;;7355483;32;20177;-61
2022/03/08 16:24:22;;;;;;;8.13;4.53;;;10.00;50.60;;;;;;7361815;32;20705;-61
2022/03/08 16:28:24;;;;;;;6.57;4.75;;;9.80;51.50;;;;;;7360705;32;20133;-60
2022/03/08 16:32:26;;;;;;;5.95;4.50;;;9.80;52.30;;;;;;7358240;32;20099;-61
2022/03/08 16:36:27;;;;;;;6.82;3.75;;;9.80;51.90;;;;;;7362040;32;20213;-61
2022/03/08 16:40:29;;;;;;;7.03;4.45;;;9.70;52.00;;;;;;7365142;32;20320;-60
2022/03/08 16:44:43;;;;;;;6.78;4.40;;;9.50;52.50;;;;;;7355973;32;20122;-61
2022/03/08 16:48:47;;;;;;;7.50;4.28;;;9.30;53.10;;;;;;7358148;32;20207;-60
2022/03/08 16:52:49;;;;;;;8.38;4.50;;;9.30;53.80;;;;;;7356148;32;21094;-61
2022/03/08 16:56:50;;;;;;;8.07;4.28;;;9.20;53.30;;;;;;7353859;32;20175;-60
2022/03/08 17:00:52;;;;;;;6.85;4.35;;;9.00;54.00;;;;;;7353039;32;20121;-61
2022/03/08 17:04:54;;;;;;;7.32;4.43;;;8.90;54.30;;;;;;7361693;32;20207;-62
2022/03/08 17:08:56;;;;;;;7.07;4.28;;;8.90;55.10;;;;;;7356897;32;20111;-61
2022/03/08 17:12:58;;;;;;;5.68;4.10;;;8.70;55.30;;;;;;7364005;32;20183;-60
2022/03/08 17:16:59;;;;;;;6.72;4.50;;;8.60;55.60;;;;;;7361670;32;20103;-61
2022/03/08 17:21:02;;;;;;;6.53;4.37;;;8.50;55.90;;;;;;7358572;32;20134;-61
2022/03/08 17:25:05;;;;;;;6.93;4.28;;;8.30;56.70;;;;;;7356779;32;20627;-61
2022/03/08 17:29:07;;;;;;;7.45;4.20;;;8.20;57.30;;;;;;7349873;32;20183;-61
2022/03/08 17:33:10;;;;;;;6.68;4.40;;;8.00;58.80;;;;;;7356880;32;20131;-60
2022/03/08 17:37:11;;;;;;;8.10;4.43;;;7.90;58.70;;;;;;7357659;32;20189;-59
2022/03/08 17:41:13;;;;;;;7.35;4.57;;;7.60;60.90;;;;;;7353869;32;20732;-58
2022/03/08 17:45:15;;;;;;;6.90;4.70;;;7.40;62.10;;;;;;7355065;32;20214;-60
2022/03/08 17:49:21;;;;;;;7.07;3.92;;;7.40;59.60;;;;;;7353809;32;20139;-60
2022/03/08 17:53:22;;;;;;;7.53;4.47;;;7.20;60.30;;;;;;7360644;32;20713;-59
2022/03/08 17:57:24;;;;;;;6.05;4.35;;;7.10;61.30;;;;;;7353007;32;20103;-60
2022/03/08 18:01:26;;;;;;;7.35;4.20;;;6.90;61.70;;;;;;7365991;32;20524;-61
2022/03/08 18:05:28;;;;;;;6.53;4.32;;;6.70;63.10;;;;;;7355457;32;20268;-60
2022/03/08 18:09:30;;;;;;;6.18;3.90;;;6.50;64.60;;;;;;7356844;32;20190;-60
2022/03/08 18:13:32;;;;;;;6.65;4.35;;;6.30;65.20;;;;;;7362634;32;20103;-60
2022/03/08 18:17:34;;;;;;;19.90;12.77;;;6.20;66.90;;;;;;7351095;32;20099;-59
2022/03/08 18:21:35;;;;;;;14.57;7.60;;;5.80;70.10;;;;;;7359692;32;20645;-59
2022/03/08 18:25:37;;;;;;;16.52;9.25;;;5.50;74.50;;;;;;7357138;32;20200;-59
2022/03/08 18:29:39;;;;;;;11.68;7.00;;;5.30;78.50;;;;;;7353491;32;20755;-59
2022/03/08 18:33:41;;;;;;;8.32;4.87;;;5.00;83.40;;;;;;7361433;32;20114;-59
2022/03/08 18:37:43;;;;;;;7.05;4.70;;;4.70;92.20;;;;;;7364049;32;20260;-59
2022/03/08 18:41:45;;;;;;;9.50;4.28;;;4.50;99.20;;;;;;7360706;32;20605;-59
2022/03/08 18:45:47;;;;;;;8.80;4.20;;;4.40;99.90;;;;;;7360330;32;20503;-59
2022/03/08 18:49:53;;;;;;;9.90;5.05;;;4.40;99.90;;;;;;7359153;32;20198;-57
2022/03/08 18:53:55;;;;;;;8.32;4.20;;;4.30;99.90;;;;;;7359062;32;20107;-60
2022/03/08 18:57:56;;;;;;;10.27;4.07;;;4.30;99.90;;;;;;7363222;32;20588;-60
2022/03/08 19:01:58;;;;;;;8.45;4.03;;;4.30;99.90;;;;;;7361610;32;20765;-61
2022/03/08 19:06:01;;;;;;;10.68;4.78;;;4.10;99.90;;;;;;7368321;32;20193;-61
2022/03/08 19:10:05;;;;;;;6.30;4.07;;;4.00;99.90;;;;;;7355031;32;20569;-63
2022/03/08 19:14:06;;;;;;;7.97;4.10;;;3.90;99.90;;;;;;7361813;32;20140;-61
2022/03/08 19:18:09;;;;;;;8.00;4.25;;;3.80;99.90;;;;;;7356211;32;20546;-62
2022/03/08 19:22:11;;;;;;;8.07;4.78;;;3.50;99.90;;;;;;7365940;32;20129;-62
2022/03/08 19:26:13;;;;;;;13.43;7.07;;;3.40;99.90;;;;;;7363441;32;20111;-61
2022/03/08 19:30:15;;;;;;;12.20;6.50;;;3.30;99.90;;;;;;7363604;32;20126;-63
2022/03/08 19:34:17;;;;;;;10.20;5.05;;;3.20;99.90;;;;;;7364581;32;20248;-62
2022/03/08 19:38:19;;;;;;;10.55;5.53;;;3.00;99.90;;;;;;7360078;32;20103;-62
2022/03/08 19:42:21;;;;;;;10.88;5.57;;;2.80;99.90;;;;;;7359488;32;20272;-64
2022/03/08 19:46:23;;;;;;;8.13;5.78;;;2.60;99.90;;;;;;7355699;32;20190;-65
2022/03/08 19:50:25;;;;;;;9.93;5.30;;;2.50;99.90;;;;;;7358573;32;20262;-63
2022/03/08 19:54:27;;;;;;;8.85;4.50;;;2.40;99.90;;;;;;7359236;32;20808;-64
2022/03/08 19:58:30;;;;;;;10.70;5.60;;;2.30;99.90;;;;;;7360107;32;20764;-61
2022/03/08 20:02:32;;;;;;;9.43;5.53;;;2.10;99.90;;;;;;7358843;32;20252;-63
2022/03/08 20:06:35;;;;;;;13.68;5.68;;;1.90;99.90;;;;;;7354486;32;20685;-65
2022/03/08 20:10:37;;;;;;;11.65;5.57;;;1.70;99.90;;;;;;7355557;32;20236;-61
2022/03/08 20:14:43;;;;;;;14.02;5.50;;;1.60;99.90;;;;;;7362960;32;20197;-61
2022/03/08 20:18:44;;;;;;;10.65;5.68;;;1.50;99.90;;;;;;7366553;32;20188;-62
2022/03/08 20:22:46;;;;;;;12.90;7.60;;;1.30;99.90;;;;;;7364303;32;20522;-63
2022/03/08 20:26:49;;;;;;;17.95;9.40;;;1.20;99.90;;;;;;7362434;32;20725;-62
2022/03/08 20:30:52;;;;;;;17.70;9.57;;;1.10;99.90;;;;;;7353501;32;20252;-62
2022/03/08 20:34:54;;;;;;;19.33;10.00;;;0.90;99.90;;;;;;7352644;32;20118;-63
2022/03/08 20:38:56;;;;;;;20.62;11.10;;;0.90;99.90;;;;;;7359804;32;20111;-62
2022/03/08 20:42:58;;;;;;;15.60;8.80;;;0.90;99.90;;;;;;7366306;32;20111;-61
2022/03/08 20:47:00;;;;;;;14.25;7.10;;;0.70;99.90;;;;;;7363489;32;20127;-62
2022/03/08 20:51:02;;;;;;;11.38;6.53;;;0.70;99.90;;;;;;7361794;32;20158;-62
2022/03/08 20:55:05;;;;;;;13.07;6.93;;;0.60;99.90;;;;;;7358305;32;20161;-62
2022/03/08 20:59:07;;;;;;;12.65;6.97;;;0.50;99.90;;;;;;7350482;32;20721;-62
2022/03/08 21:03:09;;;;;;;12.43;6.90;;;0.50;99.90;;;;;;7363192;32;20870;-60
2022/03/08 21:07:11;;;;;;;13.88;6.78;;;0.40;99.90;;;;;;7365155;32;20103;-61
2022/03/08 21:11:13;;;;;;;11.23;7.03;;;0.40;99.90;;;;;;7357316;32;20110;-62
2022/03/08 21:15:16;;;;;;;11.50;6.65;;;0.30;99.90;;;;;;7360210;32;20138;-63
2022/03/08 21:19:18;;;;;;;11.98;6.60;;;0.20;99.90;;;;;;7363987;32;20130;-60